Time;durP1;ratioP1;P1;durP2;ratioP2;P2;SDS_P1;SDS_P2;PMS_P1;PMS_P2;Temp;Humidity;BMP_temperature;BMP_pressure;BME280_temperature;BME280_humidity;BME280_pressure;Samples;Min_cycle;Max_cycle;Signal;HPM_P1;HPM_P2
2023/03/19 00:00:08;;;;;;;11.50;7.90;;;13.30;99.90;;;;;;5097494;28;20209;-55
2023/03/19 00:02:35;;;;;;;10.57;8.27;;;13.30;99.90;;;;;;5095914;28;20314;-57
2023/03/19 00:05:04;;;;;;;13.57;7.80;;;13.30;99.90;;;;;;5092305;28;20307;-57
2023/03/19 00:07:30;;;;;;;9.80;7.87;;;13.30;99.90;;;;;;5093985;28;20180;-53
2023/03/19 00:09:56;;;;;;;8.80;8.00;;;13.20;99.90;;;;;;5094404;28;20493;-55
2023/03/19 00:12:23;;;;;;;10.20;8.10;;;13.20;99.90;;;;;;5093706;28;20176;-55
2023/03/19 00:14:49;;;;;;;8.13;7.07;;;13.20;99.90;;;;;;5094401;28;20172;-55
2023/03/19 00:17:15;;;;;;;11.53;7.57;;;13.20;99.90;;;;;;5094386;28;20563;-52
2023/03/19 00:19:41;;;;;;;11.20;8.03;;;13.10;99.90;;;;;;5094681;28;20180;-53
2023/03/19 00:22:07;;;;;;;10.57;7.50;;;13.10;99.90;;;;;;5095316;28;20168;-53
2023/03/19 00:24:33;;;;;;;10.50;8.10;;;13.00;99.90;;;;;;5094028;28;20164;-52
2023/03/19 00:26:59;;;;;;;8.80;7.23;;;13.00;99.90;;;;;;5094310;28;20687;-55
2023/03/19 00:29:24;;;;;;;11.93;8.10;;;13.00;99.90;;;;;;5093607;28;20770;-50
2023/03/19 00:31:50;;;;;;;11.03;7.53;;;13.00;99.90;;;;;;5093922;28;20585;-55
2023/03/19 00:34:18;;;;;;;10.60;7.50;;;13.00;99.90;;;;;;5095220;28;20178;-53
2023/03/19 00:36:45;;;;;;;8.67;6.83;;;13.00;99.90;;;;;;5095190;28;20172;-55
2023/03/19 00:39:11;;;;;;;9.87;6.93;;;13.00;99.90;;;;;;5095069;28;20214;-52
2023/03/19 00:41:49;;;;;;;8.17;6.90;;;12.90;99.90;;;;;;5095078;28;20190;-55
2023/03/19 00:44:17;;;;;;;8.30;6.83;;;13.00;99.90;;;;;;5094976;28;20205;-55
2023/03/19 00:46:43;;;;;;;8.27;6.40;;;12.90;99.90;;;;;;5096049;28;20203;-57
2023/03/19 00:49:08;;;;;;;6.87;6.17;;;12.90;99.90;;;;;;5096643;28;20215;-56
2023/03/19 00:51:34;;;;;;;9.70;6.97;;;12.90;99.90;;;;;;5097829;28;20164;-56
2023/03/19 00:54:00;;;;;;;9.03;6.63;;;12.90;99.90;;;;;;5095770;28;20174;-55
2023/03/19 00:56:25;;;;;;;7.00;6.40;;;12.90;99.90;;;;;;5094619;28;20167;-57
2023/03/19 00:58:55;;;;;;;7.00;6.23;;;12.90;99.90;;;;;;5096155;28;20612;-55
2023/03/19 01:01:21;;;;;;;9.63;6.10;;;12.90;99.90;;;;;;5096000;28;20307;-57
2023/03/19 01:03:46;;;;;;;7.60;6.00;;;12.80;99.90;;;;;;5097802;28;20203;-54
2023/03/19 01:06:12;;;;;;;7.60;6.40;;;12.80;99.90;;;;;;5096849;28;20223;-56
2023/03/19 01:08:38;;;;;;;9.03;6.03;;;12.80;99.90;;;;;;5096082;28;20499;-55
2023/03/19 01:11:10;;;;;;;10.53;6.83;;;12.70;99.90;;;;;;5096239;28;20251;-53
2023/03/19 01:13:36;;;;;;;8.03;6.07;;;12.70;99.90;;;;;;5095196;28;20421;-52
2023/03/19 01:16:02;;;;;;;6.83;5.90;;;12.80;99.90;;;;;;5091944;28;20165;-58
2023/03/19 01:18:27;;;;;;;7.63;6.10;;;12.70;99.90;;;;;;5092181;28;20179;-52
2023/03/19 01:20:53;;;;;;;11.00;6.27;;;12.70;99.90;;;;;;5091970;28;20232;-56
2023/03/19 01:23:18;;;;;;;6.53;5.30;;;12.60;99.90;;;;;;5077380;28;20168;-51
2023/03/19 01:25:44;;;;;;;8.50;6.33;;;12.60;99.90;;;;;;5097036;28;20191;-51
2023/03/19 01:28:10;;;;;;;9.63;6.17;;;12.60;99.90;;;;;;5098613;28;20192;-52
2023/03/19 01:30:35;;;;;;;8.33;5.97;;;12.60;99.90;;;;;;5099111;28;20225;-56
2023/03/19 01:33:00;;;;;;;6.17;5.57;;;12.60;99.90;;;;;;5098974;28;20191;-52
2023/03/19 01:35:26;;;;;;;6.10;5.37;;;12.60;99.90;;;;;;5099086;28;20172;-55
2023/03/19 01:37:51;;;;;;;6.23;5.10;;;12.60;99.90;;;;;;5097907;28;20168;-53
2023/03/19 01:40:17;;;;;;;8.00;4.60;;;12.50;99.90;;;;;;5096853;28;20217;-56
2023/03/19 01:42:55;;;;;;;5.50;4.67;;;12.50;99.90;;;;;;5097729;28;20175;-57
2023/03/19 01:45:53;;;;;;;4.93;4.23;;;12.50;99.90;;;;;;5098669;28;20196;-55
2023/03/19 01:48:26;;;;;;;5.47;4.13;;;12.50;99.90;;;;;;5097096;28;20203;-52
2023/03/19 01:50:54;;;;;;;7.17;4.60;;;12.50;99.90;;;;;;5098082;28;20179;-56
2023/03/19 01:53:28;;;;;;;4.77;4.37;;;12.50;99.90;;;;;;5098001;28;20555;-52
2023/03/19 01:55:58;;;;;;;5.17;4.50;;;12.50;99.90;;;;;;5099051;28;20187;-53
2023/03/19 01:58:25;;;;;;;4.30;3.70;;;12.50;99.90;;;;;;5098629;28;20180;-53
2023/03/19 02:00:51;;;;;;;4.87;4.33;;;12.40;99.90;;;;;;5097921;28;20171;-57
2023/03/19 02:03:16;;;;;;;4.50;3.80;;;12.50;99.90;;;;;;5097772;28;20168;-54
2023/03/19 02:05:45;;;;;;;5.13;3.63;;;12.50;99.90;;;;;;5096503;28;20235;-52
2023/03/19 02:08:15;;;;;;;6.97;4.57;;;12.40;99.90;;;;;;5096927;28;20207;-56
2023/03/19 02:10:45;;;;;;;4.83;4.30;;;12.40;99.90;;;;;;5095451;28;20559;-55
2023/03/19 02:13:11;;;;;;;4.17;3.43;;;12.40;99.90;;;;;;5094681;28;20243;-52
2023/03/19 02:15:36;;;;;;;5.67;4.07;;;12.40;99.90;;;;;;5094310;28;20165;-56
2023/03/19 02:18:02;;;;;;;4.93;3.70;;;12.40;99.90;;;;;;5094482;28;20179;-52
2023/03/19 02:20:28;;;;;;;4.17;3.77;;;12.30;99.90;;;;;;5094480;28;20216;-56
2023/03/19 02:23:24;;;;;;;4.97;4.07;;;12.30;99.90;;;;;;5095532;28;20168;-52
2023/03/19 02:26:06;;;;;;;4.73;3.13;;;12.30;99.90;;;;;;5097255;28;20720;-49
2023/03/19 02:28:33;;;;;;;6.23;3.57;;;12.30;99.90;;;;;;5097789;28;20660;-56
2023/03/19 02:30:58;;;;;;;6.23;3.47;;;12.30;99.90;;;;;;5098042;28;20233;-56
2023/03/19 02:33:26;;;;;;;4.47;3.27;;;12.20;99.90;;;;;;5098616;28;20498;-52
2023/03/19 02:35:53;;;;;;;4.23;3.53;;;12.20;99.90;;;;;;5098343;28;20172;-56
2023/03/19 02:38:21;;;;;;;3.60;3.30;;;12.20;99.90;;;;;;5098294;28;20172;-50
2023/03/19 02:40:52;;;;;;;3.60;3.30;;;12.20;99.90;;;;;;5099090;28;20427;-52
2023/03/19 02:43:20;;;;;;;6.00;3.60;;;12.10;99.90;;;;;;5098368;28;20168;-52
2023/03/19 02:45:46;;;;;;;4.73;3.30;;;12.10;99.90;;;;;;5098013;28;20298;-56
2023/03/19 02:48:11;;;;;;;3.50;3.20;;;12.10;99.90;;;;;;5097756;28;20237;-55
2023/03/19 02:50:37;;;;;;;3.97;3.43;;;12.10;99.90;;;;;;5098341;28;20593;-51
2023/03/19 02:53:02;;;;;;;3.13;2.83;;;12.10;99.90;;;;;;5098811;28;20156;-52
2023/03/19 02:55:28;;;;;;;4.47;3.20;;;12.10;99.90;;;;;;5099714;28;20300;-51
2023/03/19 02:57:54;;;;;;;5.90;3.50;;;12.10;99.90;;;;;;5098522;28;20182;-55
2023/03/19 03:00:20;;;;;;;4.27;3.60;;;12.00;99.90;;;;;;5097596;28;20167;-52
2023/03/19 03:02:45;;;;;;;5.17;3.63;;;12.00;99.90;;;;;;5097699;28;20271;-55
2023/03/19 03:05:12;;;;;;;3.23;2.93;;;12.00;99.90;;;;;;5097414;28;20532;-55
2023/03/19 03:07:39;;;;;;;4.37;3.23;;;12.00;99.90;;;;;;5098167;28;20251;-50
2023/03/19 03:10:05;;;;;;;7.93;3.50;;;12.00;99.90;;;;;;5098101;28;20222;-56
2023/03/19 03:12:31;;;;;;;3.80;3.40;;;12.00;99.90;;;;;;5097857;28;20617;-51
2023/03/19 03:14:56;;;;;;;3.67;3.30;;;11.90;99.90;;;;;;5097154;28;20172;-55
2023/03/19 03:17:23;;;;;;;3.40;2.97;;;11.90;99.90;;;;;;5097508;28;20196;-56
2023/03/19 03:19:48;;;;;;;3.30;2.97;;;11.90;99.90;;;;;;5096933;28;20180;-53
2023/03/19 03:22:14;;;;;;;4.53;2.97;;;11.90;99.90;;;;;;5097391;28;20191;-51
2023/03/19 03:24:40;;;;;;;3.90;3.60;;;11.80;99.90;;;;;;5097719;28;20468;-52
2023/03/19 03:27:05;;;;;;;4.13;3.73;;;11.80;99.90;;;;;;5098154;28;20259;-53
2023/03/19 03:29:37;;;;;;;5.37;3.60;;;11.80;99.90;;;;;;5099015;28;20191;-56
2023/03/19 03:32:03;;;;;;;3.63;3.10;;;11.80;99.90;;;;;;5098961;28;20730;-54
2023/03/19 03:34:28;;;;;;;3.93;3.30;;;11.80;99.90;;;;;;5099229;28;20729;-54
2023/03/19 03:36:54;;;;;;;3.03;2.80;;;11.70;99.90;;;;;;5098501;28;20186;-56
2023/03/19 03:39:20;;;;;;;3.43;3.03;;;11.80;99.90;;;;;;5098298;28;20179;-56
2023/03/19 03:41:45;;;;;;;3.30;3.00;;;11.70;99.90;;;;;;5097906;28;20172;-56
2023/03/19 03:44:11;;;;;;;4.80;3.20;;;11.70;99.90;;;;;;5097825;28;20184;-57
2023/03/19 03:46:36;;;;;;;4.10;3.10;;;11.70;99.90;;;;;;5098027;28;20640;-54
2023/03/19 03:49:02;;;;;;;3.87;3.30;;;11.70;99.90;;;;;;5097137;28;20211;-57
2023/03/19 03:51:27;;;;;;;3.50;3.00;;;11.70;99.90;;;;;;5097832;28;20164;-57
2023/03/19 03:53:53;;;;;;;3.50;3.20;;;11.60;99.90;;;;;;5097888;28;20527;-56
2023/03/19 03:56:18;;;;;;;4.53;3.43;;;11.60;99.90;;;;;;5097434;28;20164;-56
2023/03/19 03:58:44;;;;;;;3.47;2.83;;;11.60;99.90;;;;;;5096754;28;20164;-54
2023/03/19 04:01:15;;;;;;;3.50;3.20;;;11.60;99.90;;;;;;5095771;28;20228;-55
2023/03/19 04:03:40;;;;;;;6.10;3.73;;;11.60;99.90;;;;;;5097682;28;20200;-57
2023/03/19 04:06:06;;;;;;;3.30;3.00;;;11.60;99.90;;;;;;5096795;28;20227;-57
2023/03/19 04:08:32;;;;;;;3.30;2.93;;;11.60;99.90;;;;;;5097410;28;20465;-57
2023/03/19 04:10:58;;;;;;;4.07;3.33;;;11.60;99.90;;;;;;5095713;28;20176;-56
2023/03/19 04:13:24;;;;;;;2.77;2.57;;;11.50;99.90;;;;;;5096403;28;20275;-55
2023/03/19 04:15:49;;;;;;;4.07;3.07;;;11.50;99.90;;;;;;5096654;28;20682;-56
2023/03/19 04:18:15;;;;;;;5.00;2.90;;;11.50;99.90;;;;;;5096468;28;20168;-57
2023/03/19 04:20:41;;;;;;;3.10;2.50;;;11.50;99.90;;;;;;5097042;28;20262;-56
2023/03/19 04:23:07;;;;;;;2.70;2.50;;;11.50;99.90;;;;;;5097726;28;20164;-51
2023/03/19 04:25:32;;;;;;;3.97;3.10;;;11.50;99.90;;;;;;5098120;28;20179;-53
2023/03/19 04:27:58;;;;;;;5.83;2.80;;;11.40;99.90;;;;;;5097744;28;20449;-53
2023/03/19 04:30:23;;;;;;;4.37;3.27;;;11.50;99.90;;;;;;5097342;28;20254;-52
2023/03/19 04:32:49;;;;;;;2.57;2.37;;;11.40;99.90;;;;;;5097015;28;20274;-52
2023/03/19 04:35:17;;;;;;;3.23;2.77;;;11.40;99.90;;;;;;5097749;28;20176;-54
2023/03/19 04:37:47;;;;;;;3.40;3.10;;;11.40;99.90;;;;;;5096446;28;20168;-56
2023/03/19 04:40:13;;;;;;;3.87;3.50;;;11.40;99.90;;;;;;5096634;28;20168;-55
2023/03/19 04:42:38;;;;;;;3.30;3.00;;;11.40;99.90;;;;;;5096520;28;20286;-55
2023/03/19 04:45:04;;;;;;;6.43;3.23;;;11.40;99.90;;;;;;5095841;28;20172;-52
2023/03/19 04:47:30;;;;;;;4.27;3.30;;;11.40;99.90;;;;;;5097460;28;20172;-51
2023/03/19 04:49:56;;;;;;;3.77;3.00;;;11.40;99.90;;;;;;5096496;28;20214;-53
2023/03/19 04:52:22;;;;;;;4.10;3.23;;;11.40;99.90;;;;;;5095594;28;20195;-56
2023/03/19 04:54:48;;;;;;;3.17;2.87;;;11.40;99.90;;;;;;5095658;28;20179;-54
2023/03/19 04:57:13;;;;;;;3.83;3.30;;;11.40;99.90;;;;;;5096078;28;20170;-53
2023/03/19 04:59:39;;;;;;;3.73;3.37;;;11.30;99.90;;;;;;5096455;28;20262;-52
2023/03/19 05:02:05;;;;;;;4.17;3.50;;;11.30;99.90;;;;;;5096676;28;20168;-55
2023/03/19 05:04:31;;;;;;;4.00;3.17;;;11.40;99.90;;;;;;5097117;28;20243;-57
2023/03/19 05:06:57;;;;;;;3.60;3.30;;;11.30;99.90;;;;;;5115735;28;20175;-57
2023/03/19 05:09:22;;;;;;;5.23;3.53;;;11.30;99.90;;;;;;5097873;28;20201;-53
2023/03/19 05:11:48;;;;;;;4.47;3.80;;;11.30;99.90;;;;;;5098634;28;20224;-55
2023/03/19 05:14:13;;;;;;;4.33;3.90;;;11.30;99.90;;;;;;5116007;28;20210;-54
2023/03/19 05:16:39;;;;;;;5.33;3.63;;;11.30;99.90;;;;;;5097781;28;20243;-53
2023/03/19 05:19:04;;;;;;;5.20;4.47;;;11.30;99.90;;;;;;5115800;28;20186;-53
2023/03/19 05:21:30;;;;;;;6.10;4.40;;;11.30;99.90;;;;;;5097879;28;20176;-55
2023/03/19 05:23:56;;;;;;;3.60;3.30;;;11.20;99.90;;;;;;5097641;28;20167;-56
2023/03/19 05:26:21;;;;;;;3.90;3.57;;;11.30;99.90;;;;;;5114709;28;20261;-55
2023/03/19 05:28:47;;;;;;;5.83;4.17;;;11.30;99.90;;;;;;5096304;28;20293;-53
2023/03/19 05:31:13;;;;;;;5.93;4.20;;;11.30;99.90;;;;;;5096432;28;20171;-57
2023/03/19 05:33:38;;;;;;;6.37;4.60;;;11.30;99.90;;;;;;5114295;28;20247;-56
2023/03/19 05:36:04;;;;;;;4.63;4.07;;;11.30;99.90;;;;;;5096484;28;20164;-55
2023/03/19 05:38:29;;;;;;;9.27;4.20;;;11.30;99.90;;;;;;5096801;28;20182;-56
2023/03/19 05:40:55;;;;;;;6.30;4.80;;;11.30;99.90;;;;;;5096028;28;20202;-57
2023/03/19 05:43:21;;;;;;;5.23;4.60;;;11.30;99.90;;;;;;5114337;28;20168;-54
2023/03/19 05:45:53;;;;;;;6.47;4.50;;;11.30;99.90;;;;;;5096747;28;20459;-53
2023/03/19 05:48:19;;;;;;;6.23;4.97;;;11.20;99.90;;;;;;5096501;28;20211;-51
2023/03/19 05:50:44;;;;;;;5.40;4.43;;;11.20;99.90;;;;;;5095941;28;20245;-49
2023/03/19 05:53:10;;;;;;;6.23;4.80;;;11.20;99.90;;;;;;5114496;28;20503;-55
2023/03/19 05:55:35;;;;;;;5.23;4.30;;;11.20;99.90;;;;;;5097042;28;20164;-53
2023/03/19 05:58:01;;;;;;;6.50;4.53;;;11.20;99.90;;;;;;5097086;28;20207;-52
2023/03/19 06:00:29;;;;;;;6.07;4.90;;;11.20;99.90;;;;;;5114847;28;20167;-54
2023/03/19 06:02:55;;;;;;;5.00;4.07;;;11.20;99.90;;;;;;5096582;28;20174;-51
2023/03/19 06:05:20;;;;;;;6.37;4.90;;;11.20;99.90;;;;;;5097221;28;20313;-55
2023/03/19 06:07:46;;;;;;;5.73;5.13;;;11.20;99.90;;;;;;5100939;28;20177;-56
2023/03/19 06:10:12;;;;;;;7.47;5.70;;;11.20;99.90;;;;;;5099683;28;20270;-53
2023/03/19 06:12:37;;;;;;;6.73;5.37;;;11.20;99.90;;;;;;5098469;28;20641;-53
2023/03/19 06:15:03;;;;;;;6.87;5.67;;;11.20;99.90;;;;;;5099828;28;20163;-56
2023/03/19 06:17:29;;;;;;;7.00;5.77;;;11.20;99.90;;;;;;5117705;28;20622;-53
2023/03/19 06:19:55;;;;;;;5.57;5.07;;;11.10;99.90;;;;;;5095732;28;20331;-53
2023/03/19 06:22:20;;;;;;;6.40;5.70;;;11.00;99.90;;;;;;5095077;28;20186;-56
2023/03/19 06:24:46;;;;;;;6.70;6.07;;;10.90;99.90;;;;;;5099861;28;20270;-56
2023/03/19 06:27:11;;;;;;;6.90;6.20;;;10.80;99.90;;;;;;5118921;28;20546;-56
2023/03/19 06:29:37;;;;;;;6.67;6.07;;;10.80;99.90;;;;;;5102859;28;20605;-56
2023/03/19 06:32:03;;;;;;;7.13;5.67;;;10.80;99.90;;;;;;5101999;28;20163;-52
2023/03/19 06:34:29;;;;;;;6.53;5.53;;;10.80;99.90;;;;;;5101645;28;20187;-54
2023/03/19 06:36:54;;;;;;;6.57;5.63;;;10.90;99.90;;;;;;5120126;28;20175;-56
2023/03/19 06:39:22;;;;;;;6.47;5.87;;;11.00;99.90;;;;;;5101691;28;20167;-53
2023/03/19 06:41:48;;;;;;;7.20;5.83;;;11.00;99.90;;;;;;5101787;28;20175;-57
2023/03/19 06:44:13;;;;;;;6.57;5.77;;;11.00;99.90;;;;;;5101485;28;20163;-55
2023/03/19 06:46:39;;;;;;;5.70;5.10;;;11.10;99.90;;;;;;5100746;28;20167;-56
2023/03/19 06:49:05;;;;;;;6.13;5.10;;;11.10;99.90;;;;;;5101514;28;20315;-56
2023/03/19 06:51:31;;;;;;;6.77;5.60;;;11.10;99.90;;;;;;5100311;28;20248;-56
2023/03/19 06:53:57;;;;;;;4.77;4.23;;;11.20;99.90;;;;;;5099735;28;20618;-57
2023/03/19 06:56:22;;;;;;;5.20;4.70;;;11.20;99.90;;;;;;5099357;28;20163;-55
2023/03/19 06:58:48;;;;;;;7.23;5.43;;;11.20;99.90;;;;;;5099290;28;20171;-56
2023/03/19 07:01:13;;;;;;;7.70;6.90;;;11.20;99.90;;;;;;5099623;28;20266;-52
2023/03/19 07:03:39;;;;;;;7.83;5.80;;;11.20;99.90;;;;;;5116486;28;20179;-56
2023/03/19 07:06:06;;;;;;;5.10;4.53;;;11.20;99.90;;;;;;5098374;28;20262;-57
2023/03/19 07:08:31;;;;;;;5.00;4.50;;;11.20;99.90;;;;;;5098210;28;20621;-57
2023/03/19 07:11:03;;;;;;;4.63;4.20;;;11.20;99.90;;;;;;5098529;28;20270;-55
2023/03/19 07:13:28;;;;;;;6.57;5.97;;;11.30;99.90;;;;;;5097518;28;20519;-55
2023/03/19 07:15:54;;;;;;;8.30;6.77;;;11.30;99.90;;;;;;5095412;28;20782;-55
2023/03/19 07:18:20;;;;;;;5.30;4.77;;;11.30;99.90;;;;;;5095026;28;20172;-57
2023/03/19 07:20:45;;;;;;;8.03;6.00;;;11.30;99.90;;;;;;5096494;28;20175;-54
2023/03/19 07:23:11;;;;;;;6.20;5.60;;;11.30;99.90;;;;;;5095802;28;20167;-53
2023/03/19 07:25:36;;;;;;;4.87;4.47;;;11.40;99.90;;;;;;5093384;28;20220;-57
2023/03/19 07:28:02;;;;;;;5.53;4.50;;;11.40;99.90;;;;;;5092551;28;20206;-54
2023/03/19 07:30:27;;;;;;;5.90;5.30;;;11.40;99.90;;;;;;5090758;28;20164;-50
2023/03/19 07:32:54;;;;;;;6.43;5.80;;;11.50;99.90;;;;;;5109230;28;20163;-55
2023/03/19 07:35:20;;;;;;;5.37;4.77;;;11.50;99.90;;;;;;5109336;28;20170;-55
2023/03/19 07:37:45;;;;;;;7.60;6.63;;;11.50;99.90;;;;;;5092027;28;20463;-54
2023/03/19 07:40:12;;;;;;;6.70;5.83;;;11.60;99.90;;;;;;5089490;28;20167;-55
2023/03/19 07:42:38;;;;;;;7.67;6.30;;;11.60;99.90;;;;;;5087721;28;20168;-56
2023/03/19 07:45:05;;;;;;;6.53;5.20;;;11.60;99.90;;;;;;5085751;28;20228;-53
2023/03/19 07:47:31;;;;;;;7.67;6.47;;;11.70;99.90;;;;;;5088266;28;20298;-52
2023/03/19 07:49:57;;;;;;;7.07;5.53;;;11.60;99.90;;;;;;5088626;28;20207;-53
2023/03/19 07:52:24;;;;;;;7.07;6.13;;;11.70;99.90;;;;;;5104731;28;20426;-57
2023/03/19 07:54:49;;;;;;;6.70;5.40;;;11.70;99.90;;;;;;5088200;28;20426;-56
2023/03/19 07:57:15;;;;;;;10.17;5.97;;;11.70;99.90;;;;;;5088961;28;20186;-55
2023/03/19 07:59:41;;;;;;;8.93;6.17;;;11.70;99.90;;;;;;5089084;28;20477;-57
2023/03/19 08:02:12;;;;;;;8.33;5.63;;;11.70;99.90;;;;;;5088020;28;20450;-53
2023/03/19 08:04:38;;;;;;;7.47;6.17;;;11.70;99.90;;;;;;5110873;28;20322;-55
2023/03/19 08:07:05;;;;;;;5.67;5.07;;;11.70;99.90;;;;;;5108892;28;20181;-56
2023/03/19 08:09:31;;;;;;;6.37;5.77;;;11.70;99.90;;;;;;5108301;28;20290;-50
2023/03/19 08:11:56;;;;;;;5.63;5.13;;;11.70;99.90;;;;;;5107430;28;20257;-56
2023/03/19 08:14:22;;;;;;;6.60;5.90;;;11.80;99.90;;;;;;5109415;28;20171;-56
2023/03/19 08:16:48;;;;;;;7.07;5.40;;;11.80;99.90;;;;;;5111866;28;20594;-56
2023/03/19 08:19:15;;;;;;;9.03;4.73;;;11.80;99.90;;;;;;5111324;28;20542;-57
2023/03/19 08:21:41;;;;;;;6.10;5.37;;;11.90;99.90;;;;;;5106253;28;20169;-53
2023/03/19 08:24:07;;;;;;;8.70;5.60;;;11.90;99.90;;;;;;5111235;28;20197;-57
2023/03/19 08:26:33;;;;;;;6.53;4.60;;;11.90;99.90;;;;;;5111741;28;20611;-56
2023/03/19 08:28:59;;;;;;;5.90;4.87;;;11.90;99.90;;;;;;5109929;28;20747;-57
2023/03/19 08:31:24;;;;;;;6.73;4.70;;;11.90;99.90;;;;;;5109162;28;20159;-56
2023/03/19 08:33:50;;;;;;;7.07;4.53;;;12.00;99.90;;;;;;5108713;28;20175;-53
2023/03/19 08:36:15;;;;;;;6.83;5.03;;;12.00;99.90;;;;;;5107800;28;20558;-57
2023/03/19 08:38:43;;;;;;;5.60;5.00;;;12.00;99.90;;;;;;5109268;28;20167;-54
2023/03/19 08:41:09;;;;;;;6.87;5.27;;;12.10;99.90;;;;;;5099444;28;20198;-54
2023/03/19 08:43:36;;;;;;;14.50;6.23;;;12.10;99.90;;;;;;5108741;28;20733;-54
2023/03/19 08:46:02;;;;;;;5.67;4.80;;;12.10;99.90;;;;;;5091005;28;20188;-57
2023/03/19 08:48:28;;;;;;;7.73;5.73;;;12.10;99.90;;;;;;5108584;28;20195;-55
2023/03/19 08:51:01;;;;;;;6.70;5.40;;;12.20;99.90;;;;;;5099067;28;20182;-55
2023/03/19 08:53:29;;;;;;;8.90;4.40;;;12.20;99.90;;;;;;5108932;28;20167;-56
2023/03/19 08:55:58;;;;;;;9.37;5.80;;;12.30;99.90;;;;;;5103459;28;20167;-55
2023/03/19 08:58:25;;;;;;;5.47;4.63;;;12.30;99.90;;;;;;5103365;28;20171;-54
2023/03/19 09:01:11;;;;;;;7.27;4.73;;;12.40;99.90;;;;;;5089456;28;20277;-55
2023/03/19 09:03:39;;;;;;;6.53;4.13;;;12.40;99.90;;;;;;5086832;28;20186;-57
2023/03/19 09:06:07;;;;;;;6.03;4.50;;;12.50;99.90;;;;;;5087720;28;20233;-52
2023/03/19 09:08:34;;;;;;;7.73;4.83;;;12.50;99.90;;;;;;5082963;28;20792;-54
2023/03/19 09:11:00;;;;;;;7.07;4.87;;;12.60;99.90;;;;;;5090953;28;20194;-53
2023/03/19 09:13:26;;;;;;;4.97;4.40;;;12.60;99.90;;;;;;5102770;28;20171;-55
2023/03/19 09:15:51;;;;;;;4.77;4.37;;;12.60;99.90;;;;;;5103332;28;20168;-57
2023/03/19 09:18:24;;;;;;;8.67;4.90;;;12.60;99.90;;;;;;5096086;28;20805;-56
2023/03/19 09:20:50;;;;;;;5.60;3.80;;;12.70;99.90;;;;;;5086621;28;20186;-56
2023/03/19 09:23:16;;;;;;;5.03;3.97;;;12.70;99.90;;;;;;5083675;28;20175;-57
2023/03/19 09:25:41;;;;;;;5.73;3.90;;;12.80;99.90;;;;;;5085654;28;20225;-58
2023/03/19 09:28:07;;;;;;;4.93;3.57;;;12.80;99.90;;;;;;5087714;28;20621;-56
2023/03/19 09:30:33;;;;;;;4.60;3.33;;;12.90;99.90;;;;;;5088742;28;20174;-55
2023/03/19 09:32:59;;;;;;;3.50;3.20;;;13.00;99.90;;;;;;5088231;28;20164;-56
2023/03/19 09:35:29;;;;;;;5.70;3.43;;;13.10;99.90;;;;;;5109423;28;20463;-57
2023/03/19 09:37:57;;;;;;;4.83;3.40;;;13.10;99.90;;;;;;5093185;28;20167;-54
2023/03/19 09:40:29;;;;;;;4.63;3.10;;;13.20;99.90;;;;;;5127784;27;20381;-57
2023/03/19 09:43:34;;;;;;;3.20;2.87;;;13.30;99.90;;;;;;5098658;28;20754;-52
2023/03/19 09:46:05;;;;;;;4.50;3.37;;;13.30;99.90;;;;;;5117497;28;20190;-56
2023/03/19 09:48:50;;;;;;;4.87;3.20;;;13.30;99.90;;;;;;5098320;28;20254;-53
2023/03/19 09:51:24;;;;;;;4.33;3.60;;;13.40;99.90;;;;;;5117862;28;20163;-57
2023/03/19 09:53:58;;;;;;;4.00;3.60;;;13.40;99.90;;;;;;5118193;28;20167;-54
2023/03/19 09:56:24;;;;;;;5.80;3.63;;;13.50;99.90;;;;;;5117408;28;20549;-55
2023/03/19 09:58:51;;;;;;;3.20;2.80;;;13.50;99.90;;;;;;5097744;28;20509;-57
2023/03/19 10:01:26;;;;;;;3.17;2.87;;;13.60;99.90;;;;;;5117184;28;20173;-55
2023/03/19 10:04:16;;;;;;;3.57;2.80;;;13.70;99.90;;;;;;5114691;28;20178;-54
2023/03/19 10:06:42;;;;;;;4.73;2.90;;;13.70;99.90;;;;;;5095007;28;20195;-57
2023/03/19 10:09:33;;;;;;;5.33;3.23;;;13.80;99.90;;;;;;5113224;28;20195;-57
2023/03/19 10:12:20;;;;;;;4.83;3.20;;;13.90;99.90;;;;;;5093953;28;20258;-54
2023/03/19 10:15:32;;;;;;;4.73;3.53;;;13.90;99.90;;;;;;5110678;28;20210;-53
2023/03/19 10:18:04;;;;;;;2.77;2.33;;;13.90;99.90;;;;;;5068879;28;20167;-58
2023/03/19 10:20:42;;;;;;;3.93;2.73;;;13.90;99.90;;;;;;5091868;28;20164;-54
2023/03/19 10:23:42;;;;;;;4.43;3.27;;;13.90;99.90;;;;;;5110273;28;20224;-55
2023/03/19 10:26:15;;;;;;;3.10;2.70;;;14.00;99.90;;;;;;5095171;28;20262;-55
2023/03/19 10:28:43;;;;;;;3.53;2.77;;;14.10;99.90;;;;;;5093381;28;20203;-56
2023/03/19 10:31:27;;;;;;;2.50;2.20;;;14.10;99.90;;;;;;5112223;28;20728;-57
2023/03/19 10:34:21;;;;;;;3.10;2.47;;;14.10;99.90;;;;;;5094991;28;20167;-58
2023/03/19 10:36:47;;;;;;;3.23;2.83;;;14.20;99.90;;;;;;5113216;28;20159;-54
2023/03/19 10:39:15;;;;;;;3.87;2.43;;;14.20;99.90;;;;;;5129118;27;20163;-57
2023/03/19 10:41:50;;;;;;;5.30;3.37;;;14.30;99.90;;;;;;5094889;28;20232;-55
2023/03/19 10:44:39;;;;;;;3.03;2.30;;;14.40;99.90;;;;;;5112665;28;20171;-56
2023/03/19 10:47:13;;;;;;;2.33;2.07;;;14.50;99.90;;;;;;5130244;27;20179;-58
2023/03/19 10:49:39;;;;;;;4.10;2.60;;;14.60;99.90;;;;;;5095176;28;20229;-56
2023/03/19 10:52:25;;;;;;;4.13;3.20;;;14.70;99.90;;;;;;5093298;28;20163;-57
2023/03/19 10:55:16;;;;;;;4.87;3.13;;;14.80;99.90;;;;;;5093831;28;20257;-53
2023/03/19 10:57:47;;;;;;;7.03;3.00;;;14.90;99.90;;;;;;5101926;28;20179;-57
2023/03/19 11:00:28;;;;;;;4.80;3.17;;;15.00;99.90;;;;;;5091155;28;20171;-56
2023/03/19 11:02:55;;;;;;;3.17;2.60;;;15.20;99.90;;;;;;5074480;28;20172;-57
2023/03/19 11:05:20;;;;;;;5.57;3.37;;;15.30;99.90;;;;;;5108768;28;20284;-57
2023/03/19 11:07:59;;;;;;;2.53;2.20;;;15.20;99.90;;;;;;5092198;28;20179;-54
2023/03/19 11:10:28;;;;;;;3.43;2.70;;;15.20;99.90;;;;;;5097802;28;20174;-63
2023/03/19 11:13:01;;;;;;;5.40;3.43;;;15.20;99.90;;;;;;5080621;28;20163;-64
2023/03/19 11:15:35;;;;;;;5.13;2.77;;;15.20;99.90;;;;;;5098240;28;20196;-64
2023/03/19 11:18:18;;;;;;;3.13;2.20;;;15.20;99.90;;;;;;5117922;28;20175;-63
2023/03/19 11:20:58;;;;;;;4.40;2.43;;;15.10;99.90;;;;;;5100337;28;20178;-65
2023/03/19 11:23:28;;;;;;;3.37;2.10;;;15.20;99.90;;;;;;5083553;28;20163;-63
2023/03/19 11:26:00;;;;;;;4.03;2.60;;;15.20;99.90;;;;;;5097010;28;20164;-63
2023/03/19 11:28:32;;;;;;;7.57;2.20;;;15.30;99.90;;;;;;5112229;28;20282;-63
2023/03/19 11:31:14;;;;;;;3.97;2.10;;;15.40;99.90;;;;;;5093864;28;20175;-62
2023/03/19 11:34:11;;;;;;;6.10;2.20;;;15.50;99.90;;;;;;5109916;28;20266;-63
2023/03/19 11:37:03;;;;;;;2.47;1.60;;;15.50;99.90;;;;;;5113583;28;20163;-63
2023/03/19 11:39:55;;;;;;;2.73;1.60;;;15.50;99.90;;;;;;5137417;27;20167;-64
2023/03/19 11:42:47;;;;;;;4.10;2.43;;;15.50;99.90;;;;;;5115651;27;20166;-63
2023/03/19 11:45:28;;;;;;;3.03;1.90;;;15.60;99.90;;;;;;5115732;27;20274;-57
2023/03/19 11:48:24;;;;;;;2.97;1.93;;;15.70;99.90;;;;;;5111275;27;20190;-56
2023/03/19 11:51:00;;;;;;;3.93;2.00;;;15.80;99.90;;;;;;5112141;27;20174;-57
2023/03/19 11:54:04;;;;;;;3.63;2.53;;;16.00;99.90;;;;;;5128212;27;20469;-53
2023/03/19 11:56:42;;;;;;;2.87;2.40;;;16.10;99.90;;;;;;5131364;27;20257;-55
2023/03/19 11:59:38;;;;;;;4.83;3.33;;;16.10;99.90;;;;;;5113543;27;20664;-57
2023/03/19 12:02:42;;;;;;;5.93;3.33;;;16.10;99.90;;;;;;5113385;27;20269;-52
2023/03/19 12:05:18;;;;;;;6.90;2.90;;;16.00;99.90;;;;;;5129628;27;20247;-53
2023/03/19 12:08:10;;;;;;;5.70;2.60;;;15.90;99.90;;;;;;5110843;27;20224;-54
2023/03/19 12:10:50;;;;;;;5.20;2.53;;;15.90;99.90;;;;;;5128739;27;20179;-56
2023/03/19 12:13:22;;;;;;;4.43;3.00;;;15.80;99.90;;;;;;5110872;27;20496;-56
2023/03/19 12:16:14;;;;;;;4.40;2.50;;;15.70;99.90;;;;;;5111701;27;20231;-53
2023/03/19 12:19:03;;;;;;;3.60;2.33;;;15.70;99.90;;;;;;5129562;27;20234;-55
2023/03/19 12:21:34;;;;;;;4.73;2.43;;;15.70;99.90;;;;;;5112210;27;20239;-55
2023/03/19 12:24:01;;;;;;;6.27;2.67;;;15.70;99.90;;;;;;5110270;27;20215;-53
2023/03/19 12:27:13;;;;;;;3.40;2.40;;;15.60;99.90;;;;;;5129050;27;20190;-56
2023/03/19 12:29:57;;;;;;;3.80;2.57;;;15.60;99.90;;;;;;5075419;28;20238;-58
2023/03/19 12:32:42;;;;;;;7.10;2.90;;;15.60;99.90;;;;;;5082832;28;20657;-57
2023/03/19 12:35:16;;;;;;;4.43;2.93;;;15.60;99.90;;;;;;5063812;28;20221;-58
2023/03/19 12:37:55;;;;;;;6.30;3.20;;;15.50;99.90;;;;;;5081495;28;20171;-58
2023/03/19 12:41:09;;;;;;;6.23;2.77;;;15.50;99.90;;;;;;5064170;28;20176;-57
2023/03/19 12:43:54;;;;;;;9.90;4.60;;;15.50;99.90;;;;;;5053931;28;20294;-56
2023/03/19 12:46:32;;;;;;;4.17;2.90;;;15.50;99.90;;;;;;5063016;28;20259;-58
2023/03/19 12:49:06;;;;;;;3.60;2.67;;;15.50;99.90;;;;;;5050816;28;20290;-56
2023/03/19 12:51:37;;;;;;;5.53;3.43;;;15.60;99.90;;;;;;5065420;28;20654;-56
2023/03/19 12:54:25;;;;;;;3.97;3.03;;;15.60;99.90;;;;;;5082558;28;20177;-58
2023/03/19 12:57:08;;;;;;;7.23;3.40;;;15.70;99.90;;;;;;5066537;28;20175;-56
2023/03/19 12:59:53;;;;;;;4.50;2.83;;;15.70;99.90;;;;;;5071151;28;20271;-55